Route Details

Aircraft Information
Group: North America Fleet
Types: B738, B752, B762, B763
Route Data
Distance: 468nm
Duration: 1h 55m
Origin METAR: KLAL 010655Z AUTO 00000KT 10SM CLR 16/16 A3018 RMK AO2 T01640155
Dest. METAR: KHSV 010653Z AUTO 01007KT 10SM OVC007 02/01 A3022 RMK AO2 SLP234 T00220011
Freight Data
(for Feb 1, 2023)
Load Factor:
65%
Manifested Cargo: 53,754lbs
Financial History
Total Freight: 70,105lbs
Average Load: 0lbs/flt
Fuel Used: 16,892lbs
Avg. Fuel Used: 0lbs/flt
Fuel Expense: $7,601
Avg. Fuel Expense: $0
Avg. Fuel Cost: $0/lbs
Total Gross Income: $172,458
Pilot Pay: $269
Total Expenses: $33,113
Total Revenue: $131,166
Average Revenue: $0

Capitol Logistics 308




KLAL
Lakeland Linder Regional Airport
Lakeland, Florida
KHSV
Huntsville International Airport
Huntsville, Alabama

Activity Log

Date Flight Route Aircraft Duration
08/18/2022 CPX308 DCT SMELZ Q110 BFOLO DCT B763 1h 32m